sensor_id;sensor_type;location;lat;lon;timestamp;temperature;humidity
6333;DHT22;3199;49.102;8.856;2024-01-11T00:00:09;-4.30;99.90
6333;DHT22;3199;49.102;8.856;2024-01-11T00:02:35;-4.40;99.90
6333;DHT22;3199;49.102;8.856;2024-01-11T00:05:00;-4.40;99.90
6333;DHT22;3199;49.102;8.856;2024-01-11T00:07:26;-4.40;99.90
6333;DHT22;3199;49.102;8.856;2024-01-11T00:09:51;-4.40;99.90
6333;DHT22;3199;49.102;8.856;2024-01-11T00:12:17;-4.40;99.90
6333;DHT22;3199;49.102;8.856;2024-01-11T00:14:42;-4.40;99.90
6333;DHT22;3199;49.102;8.856;2024-01-11T00:17:08;-4.30;99.90
6333;DHT22;3199;49.102;8.856;2024-01-11T00:19:33;-4.30;99.90
6333;DHT22;3199;49.102;8.856;2024-01-11T00:21:59;-4.30;99.90
6333;DHT22;3199;49.102;8.856;2024-01-11T00:24:24;-4.30;99.90
6333;DHT22;3199;49.102;8.856;2024-01-11T00:26:50;-4.30;99.90
6333;DHT22;3199;49.102;8.856;2024-01-11T00:29:15;-4.40;99.90
6333;DHT22;3199;49.102;8.856;2024-01-11T00:31:41;-4.40;99.90
6333;DHT22;3199;49.102;8.856;2024-01-11T00:34:06;-4.40;99.90
6333;DHT22;3199;49.102;8.856;2024-01-11T00:36:32;-4.40;99.90
6333;DHT22;3199;49.102;8.856;2024-01-11T00:39:02;-4.50;99.90
6333;DHT22;3199;49.102;8.856;2024-01-11T00:41:27;-4.50;99.90
6333;DHT22;3199;49.102;8.856;2024-01-11T00:43:53;-4.50;99.90
6333;DHT22;3199;49.102;8.856;2024-01-11T00:46:18;-4.50;99.90
6333;DHT22;3199;49.102;8.856;2024-01-11T00:48:44;-4.50;99.90
6333;DHT22;3199;49.102;8.856;2024-01-11T00:51:10;-4.50;99.90
6333;DHT22;3199;49.102;8.856;2024-01-11T00:53:35;-4.50;99.90
6333;DHT22;3199;49.102;8.856;2024-01-11T00:56:01;-4.50;99.90
6333;DHT22;3199;49.102;8.856;2024-01-11T00:58:26;-4.50;99.90
6333;DHT22;3199;49.102;8.856;2024-01-11T01:00:53;-4.50;99.90
6333;DHT22;3199;49.102;8.856;2024-01-11T01:03:20;-4.50;99.90
6333;DHT22;3199;49.102;8.856;2024-01-11T01:05:46;-4.60;99.90
6333;DHT22;3199;49.102;8.856;2024-01-11T01:08:12;-4.60;99.90
6333;DHT22;3199;49.102;8.856;2024-01-11T01:10:37;-4.60;99.90
6333;DHT22;3199;49.102;8.856;2024-01-11T01:13:03;-4.60;99.90
6333;DHT22;3199;49.102;8.856;2024-01-11T01:15:29;-4.60;99.90
6333;DHT22;3199;49.102;8.856;2024-01-11T01:17:54;-4.60;99.90
6333;DHT22;3199;49.102;8.856;2024-01-11T01:20:20;-4.70;99.90
6333;DHT22;3199;49.102;8.856;2024-01-11T01:22:46;-4.70;99.90
6333;DHT22;3199;49.102;8.856;2024-01-11T01:25:11;-4.70;99.90
6333;DHT22;3199;49.102;8.856;2024-01-11T01:27:37;-4.70;99.90
6333;DHT22;3199;49.102;8.856;2024-01-11T01:30:03;-4.70;99.90
6333;DHT22;3199;49.102;8.856;2024-01-11T01:32:29;-4.70;99.90
6333;DHT22;3199;49.102;8.856;2024-01-11T01:34:55;-4.70;99.90
6333;DHT22;3199;49.102;8.856;2024-01-11T01:37:21;-4.80;99.90
6333;DHT22;3199;49.102;8.856;2024-01-11T01:39:47;-4.80;99.90
6333;DHT22;3199;49.102;8.856;2024-01-11T01:42:12;-4.80;99.90
6333;DHT22;3199;49.102;8.856;2024-01-11T01:44:38;-4.80;99.90
6333;DHT22;3199;49.102;8.856;2024-01-11T01:47:06;-4.90;99.90
6333;DHT22;3199;49.102;8.856;2024-01-11T01:49:33;-4.90;99.90
6333;DHT22;3199;49.102;8.856;2024-01-11T01:51:58;-4.90;99.90
6333;DHT22;3199;49.102;8.856;2024-01-11T01:54:24;-4.90;99.90
6333;DHT22;3199;49.102;8.856;2024-01-11T01:56:50;-4.90;99.90
6333;DHT22;3199;49.102;8.856;2024-01-11T01:59:17;-4.90;99.90
6333;DHT22;3199;49.102;8.856;2024-01-11T02:01:44;-5.00;99.90
6333;DHT22;3199;49.102;8.856;2024-01-11T02:04:10;-5.00;99.90
6333;DHT22;3199;49.102;8.856;2024-01-11T02:06:36;-5.00;99.90
6333;DHT22;3199;49.102;8.856;2024-01-11T02:09:02;-5.00;99.90
6333;DHT22;3199;49.102;8.856;2024-01-11T02:11:31;-5.00;99.90
6333;DHT22;3199;49.102;8.856;2024-01-11T02:13:57;-4.90;99.90
6333;DHT22;3199;49.102;8.856;2024-01-11T02:16:23;-4.90;99.90
6333;DHT22;3199;49.102;8.856;2024-01-11T02:18:49;-4.90;99.90
6333;DHT22;3199;49.102;8.856;2024-01-11T02:21:14;-4.90;99.90
6333;DHT22;3199;49.102;8.856;2024-01-11T02:23:44;-4.90;99.90
6333;DHT22;3199;49.102;8.856;2024-01-11T02:26:12;-4.90;99.90
6333;DHT22;3199;49.102;8.856;2024-01-11T02:28:37;-4.90;99.90
6333;DHT22;3199;49.102;8.856;2024-01-11T02:31:03;-4.90;99.90
6333;DHT22;3199;49.102;8.856;2024-01-11T02:33:28;-4.80;99.90
6333;DHT22;3199;49.102;8.856;2024-01-11T02:35:54;-4.80;99.90
6333;DHT22;3199;49.102;8.856;2024-01-11T02:38:20;-4.80;99.90
6333;DHT22;3199;49.102;8.856;2024-01-11T02:40:46;-4.80;99.90
6333;DHT22;3199;49.102;8.856;2024-01-11T02:43:13;-4.80;99.90
6333;DHT22;3199;49.102;8.856;2024-01-11T02:45:39;-4.80;99.90
6333;DHT22;3199;49.102;8.856;2024-01-11T02:48:04;-4.80;99.90
6333;DHT22;3199;49.102;8.856;2024-01-11T02:50:30;-4.70;99.90
6333;DHT22;3199;49.102;8.856;2024-01-11T02:52:55;-4.70;99.90
6333;DHT22;3199;49.102;8.856;2024-01-11T02:55:21;-4.70;99.90
6333;DHT22;3199;49.102;8.856;2024-01-11T02:57:46;-4.70;99.90
6333;DHT22;3199;49.102;8.856;2024-01-11T03:00:12;-4.60;99.90
6333;DHT22;3199;49.102;8.856;2024-01-11T03:02:38;-4.60;99.90
6333;DHT22;3199;49.102;8.856;2024-01-11T03:05:04;-4.60;99.90
6333;DHT22;3199;49.102;8.856;2024-01-11T03:07:29;-4.60;99.90
6333;DHT22;3199;49.102;8.856;2024-01-11T03:09:56;-4.50;99.90
6333;DHT22;3199;49.102;8.856;2024-01-11T03:12:21;-4.50;99.90
6333;DHT22;3199;49.102;8.856;2024-01-11T03:14:47;-4.40;99.90
6333;DHT22;3199;49.102;8.856;2024-01-11T03:17:13;-4.40;99.90
6333;DHT22;3199;49.102;8.856;2024-01-11T03:19:41;-4.40;99.90
6333;DHT22;3199;49.102;8.856;2024-01-11T03:22:07;-4.40;99.90
6333;DHT22;3199;49.102;8.856;2024-01-11T03:24:33;-4.40;99.90
6333;DHT22;3199;49.102;8.856;2024-01-11T03:27:02;-4.40;99.90
6333;DHT22;3199;49.102;8.856;2024-01-11T03:29:28;-4.40;99.90
6333;DHT22;3199;49.102;8.856;2024-01-11T03:31:53;-4.40;99.90
6333;DHT22;3199;49.102;8.856;2024-01-11T03:34:19;-4.40;99.90
6333;DHT22;3199;49.102;8.856;2024-01-11T03:36:44;-4.40;99.90
6333;DHT22;3199;49.102;8.856;2024-01-11T03:39:10;-4.40;99.90
6333;DHT22;3199;49.102;8.856;2024-01-11T03:41:35;-4.50;99.90
6333;DHT22;3199;49.102;8.856;2024-01-11T03:44:01;-4.50;99.90
6333;DHT22;3199;49.102;8.856;2024-01-11T03:46:26;-4.50;99.90
6333;DHT22;3199;49.102;8.856;2024-01-11T03:48:52;-4.50;99.90
6333;DHT22;3199;49.102;8.856;2024-01-11T03:51:18;-4.50;99.90
6333;DHT22;3199;49.102;8.856;2024-01-11T03:53:43;-4.50;99.90
6333;DHT22;3199;49.102;8.856;2024-01-11T03:56:09;-4.60;99.90
6333;DHT22;3199;49.102;8.856;2024-01-11T03:58:36;-4.50;99.90
6333;DHT22;3199;49.102;8.856;2024-01-11T04:01:02;-4.60;99.90
6333;DHT22;3199;49.102;8.856;2024-01-11T04:03:27;-4.50;99.90
6333;DHT22;3199;49.102;8.856;2024-01-11T04:05:53;-4.50;99.90
6333;DHT22;3199;49.102;8.856;2024-01-11T04:08:18;-4.50;99.90
6333;DHT22;3199;49.102;8.856;2024-01-11T04:10:44;-4.50;99.90
6333;DHT22;3199;49.102;8.856;2024-01-11T04:13:10;-4.50;99.90
6333;DHT22;3199;49.102;8.856;2024-01-11T04:15:35;-4.50;99.90
6333;DHT22;3199;49.102;8.856;2024-01-11T04:18:01;-4.60;99.90
6333;DHT22;3199;49.102;8.856;2024-01-11T04:20:27;-4.60;99.90
6333;DHT22;3199;49.102;8.856;2024-01-11T04:22:52;-4.60;99.90
6333;DHT22;3199;49.102;8.856;2024-01-11T04:25:18;-4.60;99.90
6333;DHT22;3199;49.102;8.856;2024-01-11T04:27:44;-4.60;99.90
6333;DHT22;3199;49.102;8.856;2024-01-11T04:30:09;-4.60;99.90
6333;DHT22;3199;49.102;8.856;2024-01-11T04:32:35;-4.60;99.90
6333;DHT22;3199;49.102;8.856;2024-01-11T04:35:01;-4.60;99.90
6333;DHT22;3199;49.102;8.856;2024-01-11T04:37:26;-4.60;99.90
6333;DHT22;3199;49.102;8.856;2024-01-11T04:39:52;-4.60;99.90
6333;DHT22;3199;49.102;8.856;2024-01-11T04:42:17;-4.60;99.90
6333;DHT22;3199;49.102;8.856;2024-01-11T04:44:43;-4.60;99.90
6333;DHT22;3199;49.102;8.856;2024-01-11T04:47:08;-4.60;99.90
6333;DHT22;3199;49.102;8.856;2024-01-11T04:49:34;-4.60;99.90
6333;DHT22;3199;49.102;8.856;2024-01-11T04:51:59;-4.70;99.90
6333;DHT22;3199;49.102;8.856;2024-01-11T04:54:25;-4.70;99.90
6333;DHT22;3199;49.102;8.856;2024-01-11T04:56:50;-4.70;99.90
6333;DHT22;3199;49.102;8.856;2024-01-11T04:59:16;-4.70;99.90
6333;DHT22;3199;49.102;8.856;2024-01-11T05:01:41;-4.70;99.90
6333;DHT22;3199;49.102;8.856;2024-01-11T05:04:08;-4.70;99.90
6333;DHT22;3199;49.102;8.856;2024-01-11T05:06:34;-4.70;99.90
6333;DHT22;3199;49.102;8.856;2024-01-11T05:08:59;-4.70;99.90
6333;DHT22;3199;49.102;8.856;2024-01-11T05:11:25;-4.80;99.90
6333;DHT22;3199;49.102;8.856;2024-01-11T05:13:52;-4.80;99.90
6333;DHT22;3199;49.102;8.856;2024-01-11T05:16:18;-4.70;99.90
6333;DHT22;3199;49.102;8.856;2024-01-11T05:18:44;-4.60;99.90
6333;DHT22;3199;49.102;8.856;2024-01-11T05:21:09;-4.60;99.90
6333;DHT22;3199;49.102;8.856;2024-01-11T05:23:35;-4.60;99.90
6333;DHT22;3199;49.102;8.856;2024-01-11T05:26:00;-4.70;99.90
6333;DHT22;3199;49.102;8.856;2024-01-11T05:28:26;-4.70;99.90
6333;DHT22;3199;49.102;8.856;2024-01-11T05:30:51;-4.70;99.90
6333;DHT22;3199;49.102;8.856;2024-01-11T05:33:17;-4.70;99.90
6333;DHT22;3199;49.102;8.856;2024-01-11T05:35:42;-4.80;99.90
6333;DHT22;3199;49.102;8.856;2024-01-11T05:38:08;-4.80;99.90
6333;DHT22;3199;49.102;8.856;2024-01-11T05:40:33;-4.80;99.90
6333;DHT22;3199;49.102;8.856;2024-01-11T05:42:59;-4.80;99.90
6333;DHT22;3199;49.102;8.856;2024-01-11T05:45:24;-4.80;99.90
6333;DHT22;3199;49.102;8.856;2024-01-11T05:47:50;-4.80;99.90
6333;DHT22;3199;49.102;8.856;2024-01-11T05:50:15;-4.80;99.90
6333;DHT22;3199;49.102;8.856;2024-01-11T05:52:41;-4.80;99.90
6333;DHT22;3199;49.102;8.856;2024-01-11T05:55:07;-4.80;99.90
6333;DHT22;3199;49.102;8.856;2024-01-11T05:57:32;-4.80;99.90
6333;DHT22;3199;49.102;8.856;2024-01-11T05:59:58;-4.80;99.90
6333;DHT22;3199;49.102;8.856;2024-01-11T06:02:23;-4.90;99.90
6333;DHT22;3199;49.102;8.856;2024-01-11T06:04:49;-4.90;99.90
6333;DHT22;3199;49.102;8.856;2024-01-11T06:07:15;-5.00;99.90
6333;DHT22;3199;49.102;8.856;2024-01-11T06:09:40;-5.00;99.90
6333;DHT22;3199;49.102;8.856;2024-01-11T06:12:06;-5.00;99.90
6333;DHT22;3199;49.102;8.856;2024-01-11T06:14:31;-5.00;99.90
6333;DHT22;3199;49.102;8.856;2024-01-11T06:16:57;-5.00;99.90
6333;DHT22;3199;49.102;8.856;2024-01-11T06:19:23;-5.00;99.90
6333;DHT22;3199;49.102;8.856;2024-01-11T06:21:48;-5.00;99.90
6333;DHT22;3199;49.102;8.856;2024-01-11T06:24:14;-5.00;99.90
6333;DHT22;3199;49.102;8.856;2024-01-11T06:26:39;-5.00;99.90
6333;DHT22;3199;49.102;8.856;2024-01-11T06:29:05;-5.00;99.90
6333;DHT22;3199;49.102;8.856;2024-01-11T06:31:31;-5.00;99.90
6333;DHT22;3199;49.102;8.856;2024-01-11T06:33:56;-5.00;99.90
6333;DHT22;3199;49.102;8.856;2024-01-11T06:36:22;-5.00;99.90
6333;DHT22;3199;49.102;8.856;2024-01-11T06:38:47;-5.10;99.90
6333;DHT22;3199;49.102;8.856;2024-01-11T06:41:14;-5.00;99.90
6333;DHT22;3199;49.102;8.856;2024-01-11T06:43:39;-5.00;99.90
6333;DHT22;3199;49.102;8.856;2024-01-11T06:46:05;-5.00;99.90
6333;DHT22;3199;49.102;8.856;2024-01-11T06:48:31;-5.10;99.90
6333;DHT22;3199;49.102;8.856;2024-01-11T06:50:57;-5.10;99.90
6333;DHT22;3199;49.102;8.856;2024-01-11T06:53:23;-5.00;99.90
6333;DHT22;3199;49.102;8.856;2024-01-11T06:55:48;-5.00;99.90
6333;DHT22;3199;49.102;8.856;2024-01-11T06:58:16;-5.00;99.90
6333;DHT22;3199;49.102;8.856;2024-01-11T07:00:41;-5.00;99.90
6333;DHT22;3199;49.102;8.856;2024-01-11T07:03:09;-5.00;99.90
6333;DHT22;3199;49.102;8.856;2024-01-11T07:05:37;-5.00;99.90
6333;DHT22;3199;49.102;8.856;2024-01-11T07:08:03;-5.00;99.90
6333;DHT22;3199;49.102;8.856;2024-01-11T07:10:29;-5.00;99.90
6333;DHT22;3199;49.102;8.856;2024-01-11T07:12:55;-4.90;99.90
6333;DHT22;3199;49.102;8.856;2024-01-11T07:15:20;-5.00;99.90
6333;DHT22;3199;49.102;8.856;2024-01-11T07:17:45;-4.90;99.90
6333;DHT22;3199;49.102;8.856;2024-01-11T07:20:11;-4.90;99.90
6333;DHT22;3199;49.102;8.856;2024-01-11T07:22:37;-5.00;99.90
6333;DHT22;3199;49.102;8.856;2024-01-11T07:25:02;-4.90;99.90
6333;DHT22;3199;49.102;8.856;2024-01-11T07:27:29;-4.90;99.90
6333;DHT22;3199;49.102;8.856;2024-01-11T07:29:55;-4.90;99.90
6333;DHT22;3199;49.102;8.856;2024-01-11T07:32:20;-4.90;99.90
6333;DHT22;3199;49.102;8.856;2024-01-11T07:34:46;-5.00;99.90
6333;DHT22;3199;49.102;8.856;2024-01-11T07:37:11;-5.00;99.90
6333;DHT22;3199;49.102;8.856;2024-01-11T07:39:37;-5.00;99.90
6333;DHT22;3199;49.102;8.856;2024-01-11T07:42:02;-5.00;99.90
6333;DHT22;3199;49.102;8.856;2024-01-11T07:44:28;-4.90;99.90
6333;DHT22;3199;49.102;8.856;2024-01-11T07:46:54;-4.90;99.90
6333;DHT22;3199;49.102;8.856;2024-01-11T07:49:19;-4.90;99.90
6333;DHT22;3199;49.102;8.856;2024-01-11T07:51:45;-4.80;99.90
6333;DHT22;3199;49.102;8.856;2024-01-11T07:54:11;-4.80;99.90
6333;DHT22;3199;49.102;8.856;2024-01-11T07:56:37;-4.70;99.90
6333;DHT22;3199;49.102;8.856;2024-01-11T07:59:03;-4.70;99.90
6333;DHT22;3199;49.102;8.856;2024-01-11T08:01:28;-4.70;99.90
6333;DHT22;3199;49.102;8.856;2024-01-11T08:03:54;-4.60;99.90
6333;DHT22;3199;49.102;8.856;2024-01-11T08:06:19;-4.50;99.90
6333;DHT22;3199;49.102;8.856;2024-01-11T08:08:45;-4.50;99.90
6333;DHT22;3199;49.102;8.856;2024-01-11T08:11:16;-4.40;99.90
6333;DHT22;3199;49.102;8.856;2024-01-11T08:13:42;-4.40;99.90
6333;DHT22;3199;49.102;8.856;2024-01-11T08:16:07;-4.40;99.90
6333;DHT22;3199;49.102;8.856;2024-01-11T08:18:35;-4.30;99.90
6333;DHT22;3199;49.102;8.856;2024-01-11T08:21:00;-4.10;99.90
6333;DHT22;3199;49.102;8.856;2024-01-11T08:23:26;-4.00;99.90
6333;DHT22;3199;49.102;8.856;2024-01-11T08:25:51;-4.00;99.90
6333;DHT22;3199;49.102;8.856;2024-01-11T08:28:18;-3.90;99.90
6333;DHT22;3199;49.102;8.856;2024-01-11T08:30:44;-3.80;99.90
6333;DHT22;3199;49.102;8.856;2024-01-11T08:33:09;-3.70;99.90
6333;DHT22;3199;49.102;8.856;2024-01-11T08:35:35;-3.60;99.90
6333;DHT22;3199;49.102;8.856;2024-01-11T08:38:00;-3.50;99.90
6333;DHT22;3199;49.102;8.856;2024-01-11T08:40:26;-3.40;99.90
6333;DHT22;3199;49.102;8.856;2024-01-11T08:42:52;-3.30;99.90
6333;DHT22;3199;49.102;8.856;2024-01-11T08:45:17;-3.20;99.90
6333;DHT22;3199;49.102;8.856;2024-01-11T08:47:44;-3.10;99.90
6333;DHT22;3199;49.102;8.856;2024-01-11T08:50:13;-3.00;99.90
6333;DHT22;3199;49.102;8.856;2024-01-11T08:52:38;-2.90;99.90
6333;DHT22;3199;49.102;8.856;2024-01-11T08:55:05;-2.80;99.90
6333;DHT22;3199;49.102;8.856;2024-01-11T08:57:30;-2.70;99.90
6333;DHT22;3199;49.102;8.856;2024-01-11T08:59:56;-2.60;99.90
6333;DHT22;3199;49.102;8.856;2024-01-11T09:02:22;-2.50;99.90
6333;DHT22;3199;49.102;8.856;2024-01-11T09:04:48;-2.40;99.90
6333;DHT22;3199;49.102;8.856;2024-01-11T09:07:14;-2.30;99.90
6333;DHT22;3199;49.102;8.856;2024-01-11T09:09:41;-2.20;99.90
6333;DHT22;3199;49.102;8.856;2024-01-11T09:12:06;-2.00;99.90
6333;DHT22;3199;49.102;8.856;2024-01-11T09:14:32;-2.00;99.90
6333;DHT22;3199;49.102;8.856;2024-01-11T09:16:58;-2.00;99.90
6333;DHT22;3199;49.102;8.856;2024-01-11T09:19:23;-2.00;99.90
6333;DHT22;3199;49.102;8.856;2024-01-11T09:21:49;-1.90;99.90
6333;DHT22;3199;49.102;8.856;2024-01-11T09:24:15;-1.90;99.90
6333;DHT22;3199;49.102;8.856;2024-01-11T09:26:40;-1.80;99.90
6333;DHT22;3199;49.102;8.856;2024-01-11T09:29:06;-1.90;99.90
6333;DHT22;3199;49.102;8.856;2024-01-11T09:31:31;-1.80;99.90
6333;DHT22;3199;49.102;8.856;2024-01-11T09:33:57;-1.80;99.90
6333;DHT22;3199;49.102;8.856;2024-01-11T09:36:22;-1.80;99.90
6333;DHT22;3199;49.102;8.856;2024-01-11T09:38:48;-1.70;99.90
6333;DHT22;3199;49.102;8.856;2024-01-11T09:41:14;-1.60;99.90
6333;DHT22;3199;49.102;8.856;2024-01-11T09:43:43;-1.50;99.90
6333;DHT22;3199;49.102;8.856;2024-01-11T09:46:10;-1.40;99.90
6333;DHT22;3199;49.102;8.856;2024-01-11T09:48:38;-1.30;99.90
6333;DHT22;3199;49.102;8.856;2024-01-11T09:51:10;-1.30;99.90
6333;DHT22;3199;49.102;8.856;2024-01-11T09:53:38;-1.20;99.90
6333;DHT22;3199;49.102;8.856;2024-01-11T09:56:07;-1.10;99.90
6333;DHT22;3199;49.102;8.856;2024-01-11T09:58:34;-1.10;99.90
6333;DHT22;3199;49.102;8.856;2024-01-11T10:01:02;-1.10;99.90
6333;DHT22;3199;49.102;8.856;2024-01-11T10:03:28;-1.20;99.90
6333;DHT22;3199;49.102;8.856;2024-01-11T10:05:57;-1.10;99.90
6333;DHT22;3199;49.102;8.856;2024-01-11T10:08:23;-1.00;99.90
6333;DHT22;3199;49.102;8.856;2024-01-11T10:10:49;-1.00;99.90
6333;DHT22;3199;49.102;8.856;2024-01-11T10:13:15;-0.90;99.90
6333;DHT22;3199;49.102;8.856;2024-01-11T10:15:42;-0.90;99.90
6333;DHT22;3199;49.102;8.856;2024-01-11T10:18:09;-0.90;99.90
6333;DHT22;3199;49.102;8.856;2024-01-11T10:20:34;-0.80;99.90
6333;DHT22;3199;49.102;8.856;2024-01-11T10:23:01;-0.70;99.90
6333;DHT22;3199;49.102;8.856;2024-01-11T10:25:27;-0.60;99.90
6333;DHT22;3199;49.102;8.856;2024-01-11T10:27:53;-0.50;99.90
6333;DHT22;3199;49.102;8.856;2024-01-11T10:30:18;-0.20;99.90
6333;DHT22;3199;49.102;8.856;2024-01-11T10:32:48;0.20;99.90
6333;DHT22;3199;49.102;8.856;2024-01-11T10:35:14;0.40;99.40
6333;DHT22;3199;49.102;8.856;2024-01-11T10:37:41;0.50;98.70
6333;DHT22;3199;49.102;8.856;2024-01-11T10:40:08;0.50;98.40
6333;DHT22;3199;49.102;8.856;2024-01-11T10:42:45;0.50;98.10
6333;DHT22;3199;49.102;8.856;2024-01-11T10:45:17;0.30;98.20
6333;DHT22;3199;49.102;8.856;2024-01-11T10:47:54;0.30;98.60
6333;DHT22;3199;49.102;8.856;2024-01-11T10:50:22;0.20;98.80
6333;DHT22;3199;49.102;8.856;2024-01-11T10:53:02;0.20;99.10
6333;DHT22;3199;49.102;8.856;2024-01-11T10:55:31;0.20;99.10
6333;DHT22;3199;49.102;8.856;2024-01-11T10:57:58;0.20;99.20
6333;DHT22;3199;49.102;8.856;2024-01-11T11:00:25;0.20;98.90
6333;DHT22;3199;49.102;8.856;2024-01-11T11:02:51;0.10;98.60
6333;DHT22;3199;49.102;8.856;2024-01-11T11:05:19;0.10;98.80
6333;DHT22;3199;49.102;8.856;2024-01-11T11:07:47;0.10;98.90
6333;DHT22;3199;49.102;8.856;2024-01-11T11:10:17;0.20;99.00
6333;DHT22;3199;49.102;8.856;2024-01-11T11:12:45;0.20;99.00
6333;DHT22;3199;49.102;8.856;2024-01-11T11:15:12;0.40;99.30
6333;DHT22;3199;49.102;8.856;2024-01-11T11:17:39;0.50;99.00
6333;DHT22;3199;49.102;8.856;2024-01-11T11:20:06;0.50;98.60
6333;DHT22;3199;49.102;8.856;2024-01-11T11:22:34;0.50;98.40
6333;DHT22;3199;49.102;8.856;2024-01-11T11:25:09;0.50;98.40
6333;DHT22;3199;49.102;8.856;2024-01-11T11:27:36;0.50;98.30
6333;DHT22;3199;49.102;8.856;2024-01-11T11:30:03;0.50;98.50
6333;DHT22;3199;49.102;8.856;2024-01-11T11:32:42;0.60;98.60
6333;DHT22;3199;49.102;8.856;2024-01-11T11:35:08;0.70;98.20
6333;DHT22;3199;49.102;8.856;2024-01-11T11:37:36;0.80;98.30
6333;DHT22;3199;49.102;8.856;2024-01-11T11:40:03;0.90;98.00
6333;DHT22;3199;49.102;8.856;2024-01-11T11:42:34;1.00;98.00
6333;DHT22;3199;49.102;8.856;2024-01-11T11:45:00;1.10;97.80
6333;DHT22;3199;49.102;8.856;2024-01-11T11:47:33;1.10;97.60
6333;DHT22;3199;49.102;8.856;2024-01-11T11:50:06;1.20;97.50
6333;DHT22;3199;49.102;8.856;2024-01-11T11:52:33;1.10;97.20
6333;DHT22;3199;49.102;8.856;2024-01-11T11:55:02;1.10;97.20
6333;DHT22;3199;49.102;8.856;2024-01-11T11:57:29;1.00;97.20
6333;DHT22;3199;49.102;8.856;2024-01-11T11:59:58;1.00;97.30
6333;DHT22;3199;49.102;8.856;2024-01-11T12:02:25;0.90;97.20
6333;DHT22;3199;49.102;8.856;2024-01-11T12:04:51;0.90;97.40
6333;DHT22;3199;49.102;8.856;2024-01-11T12:07:17;0.90;97.70
6333;DHT22;3199;49.102;8.856;2024-01-11T12:09:43;0.90;97.80
6333;DHT22;3199;49.102;8.856;2024-01-11T12:12:09;0.90;97.50
6333;DHT22;3199;49.102;8.856;2024-01-11T12:14:35;1.00;97.70
6333;DHT22;3199;49.102;8.856;2024-01-11T12:17:01;1.00;97.70
6333;DHT22;3199;49.102;8.856;2024-01-11T12:19:27;1.10;97.60
6333;DHT22;3199;49.102;8.856;2024-01-11T12:21:53;1.10;97.50
6333;DHT22;3199;49.102;8.856;2024-01-11T12:24:20;1.20;97.30
6333;DHT22;3199;49.102;8.856;2024-01-11T12:26:47;1.10;97.00
6333;DHT22;3199;49.102;8.856;2024-01-11T12:29:17;1.10;97.10
6333;DHT22;3199;49.102;8.856;2024-01-11T12:31:44;1.20;97.30
6333;DHT22;3199;49.102;8.856;2024-01-11T12:34:11;1.30;97.70
6333;DHT22;3199;49.102;8.856;2024-01-11T12:36:36;1.40;97.70
6333;DHT22;3199;49.102;8.856;2024-01-11T12:39:02;1.40;96.90
6333;DHT22;3199;49.102;8.856;2024-01-11T12:41:29;1.30;96.50
6333;DHT22;3199;49.102;8.856;2024-01-11T12:43:55;1.30;96.50
6333;DHT22;3199;49.102;8.856;2024-01-11T12:46:20;1.20;96.60
6333;DHT22;3199;49.102;8.856;2024-01-11T12:48:47;1.30;96.90
6333;DHT22;3199;49.102;8.856;2024-01-11T12:51:12;1.30;96.60
6333;DHT22;3199;49.102;8.856;2024-01-11T12:53:38;1.30;96.50
6333;DHT22;3199;49.102;8.856;2024-01-11T12:56:05;1.30;96.50
6333;DHT22;3199;49.102;8.856;2024-01-11T12:58:34;1.30;96.50
6333;DHT22;3199;49.102;8.856;2024-01-11T13:01:00;1.30;96.50
6333;DHT22;3199;49.102;8.856;2024-01-11T13:03:25;1.20;96.50
6333;DHT22;3199;49.102;8.856;2024-01-11T13:05:52;1.20;96.50
6333;DHT22;3199;49.102;8.856;2024-01-11T13:08:18;1.20;96.50
6333;DHT22;3199;49.102;8.856;2024-01-11T13:10:43;1.30;96.60
6333;DHT22;3199;49.102;8.856;2024-01-11T13:13:09;1.30;96.70
6333;DHT22;3199;49.102;8.856;2024-01-11T13:15:35;1.40;96.60
6333;DHT22;3199;49.102;8.856;2024-01-11T13:18:01;1.40;96.40
6333;DHT22;3199;49.102;8.856;2024-01-11T13:20:28;1.40;96.20
6333;DHT22;3199;49.102;8.856;2024-01-11T13:23:15;1.40;96.20
6333;DHT22;3199;49.102;8.856;2024-01-11T13:25:42;1.40;96.40
6333;DHT22;3199;49.102;8.856;2024-01-11T13:28:08;1.40;96.30
6333;DHT22;3199;49.102;8.856;2024-01-11T13:30:34;1.40;96.50
6333;DHT22;3199;49.102;8.856;2024-01-11T13:32:59;1.50;96.40
6333;DHT22;3199;49.102;8.856;2024-01-11T13:35:25;1.50;96.40
6333;DHT22;3199;49.102;8.856;2024-01-11T13:37:50;1.50;96.50
6333;DHT22;3199;49.102;8.856;2024-01-11T13:40:16;1.50;96.00
6333;DHT22;3199;49.102;8.856;2024-01-11T13:42:41;1.40;95.90
6333;DHT22;3199;49.102;8.856;2024-01-11T13:45:09;1.40;96.00
6333;DHT22;3199;49.102;8.856;2024-01-11T13:47:35;1.40;96.10
6333;DHT22;3199;49.102;8.856;2024-01-11T13:50:01;1.40;96.00
6333;DHT22;3199;49.102;8.856;2024-01-11T13:52:26;1.40;96.10
6333;DHT22;3199;49.102;8.856;2024-01-11T13:54:52;1.40;96.10
6333;DHT22;3199;49.102;8.856;2024-01-11T13:57:17;1.40;96.00
6333;DHT22;3199;49.102;8.856;2024-01-11T13:59:43;1.40;96.00
6333;DHT22;3199;49.102;8.856;2024-01-11T14:02:08;1.40;95.90
6333;DHT22;3199;49.102;8.856;2024-01-11T14:04:34;1.40;95.90
6333;DHT22;3199;49.102;8.856;2024-01-11T14:07:00;1.40;95.80
6333;DHT22;3199;49.102;8.856;2024-01-11T14:09:26;1.50;95.90
6333;DHT22;3199;49.102;8.856;2024-01-11T14:11:51;1.50;96.00
6333;DHT22;3199;49.102;8.856;2024-01-11T14:14:17;1.50;96.00
6333;DHT22;3199;49.102;8.856;2024-01-11T14:16:44;1.50;96.00
6333;DHT22;3199;49.102;8.856;2024-01-11T14:19:11;1.50;96.00
6333;DHT22;3199;49.102;8.856;2024-01-11T14:21:36;1.50;95.90
6333;DHT22;3199;49.102;8.856;2024-01-11T14:24:03;1.40;95.80
6333;DHT22;3199;49.102;8.856;2024-01-11T14:26:29;1.40;95.80
6333;DHT22;3199;49.102;8.856;2024-01-11T14:28:54;1.40;95.80
6333;DHT22;3199;49.102;8.856;2024-01-11T14:31:20;1.40;96.10
6333;DHT22;3199;49.102;8.856;2024-01-11T14:33:46;1.30;95.80
6333;DHT22;3199;49.102;8.856;2024-01-11T14:36:12;1.40;95.90
6333;DHT22;3199;49.102;8.856;2024-01-11T14:38:39;1.30;95.90
6333;DHT22;3199;49.102;8.856;2024-01-11T14:41:05;1.30;96.00
6333;DHT22;3199;49.102;8.856;2024-01-11T14:43:30;1.30;96.10
6333;DHT22;3199;49.102;8.856;2024-01-11T14:45:56;1.30;96.00
6333;DHT22;3199;49.102;8.856;2024-01-11T14:48:21;1.30;95.90
6333;DHT22;3199;49.102;8.856;2024-01-11T14:50:48;1.30;95.90
6333;DHT22;3199;49.102;8.856;2024-01-11T14:53:14;1.30;95.90
6333;DHT22;3199;49.102;8.856;2024-01-11T14:55:39;1.30;95.90
6333;DHT22;3199;49.102;8.856;2024-01-11T14:58:05;1.20;96.00
6333;DHT22;3199;49.102;8.856;2024-01-11T15:00:31;1.20;96.10
6333;DHT22;3199;49.102;8.856;2024-01-11T15:02:56;1.20;96.10
6333;DHT22;3199;49.102;8.856;2024-01-11T15:05:22;1.20;96.20
6333;DHT22;3199;49.102;8.856;2024-01-11T15:07:47;1.20;96.20
6333;DHT22;3199;49.102;8.856;2024-01-11T15:10:13;1.20;96.10
6333;DHT22;3199;49.102;8.856;2024-01-11T15:12:38;1.20;96.00
6333;DHT22;3199;49.102;8.856;2024-01-11T15:15:04;1.20;96.00
6333;DHT22;3199;49.102;8.856;2024-01-11T15:17:31;1.20;95.90
6333;DHT22;3199;49.102;8.856;2024-01-11T15:19:57;1.10;96.00
6333;DHT22;3199;49.102;8.856;2024-01-11T15:22:23;1.10;96.00
6333;DHT22;3199;49.102;8.856;2024-01-11T15:24:49;1.00;96.00
6333;DHT22;3199;49.102;8.856;2024-01-11T15:27:20;1.00;96.40
6333;DHT22;3199;49.102;8.856;2024-01-11T15:29:46;0.90;96.40
6333;DHT22;3199;49.102;8.856;2024-01-11T15:32:15;0.80;96.40
6333;DHT22;3199;49.102;8.856;2024-01-11T15:34:41;0.80;96.50
6333;DHT22;3199;49.102;8.856;2024-01-11T15:37:09;0.80;96.60
6333;DHT22;3199;49.102;8.856;2024-01-11T15:39:35;0.70;96.60
6333;DHT22;3199;49.102;8.856;2024-01-11T15:42:01;0.60;96.80
6333;DHT22;3199;49.102;8.856;2024-01-11T15:44:28;0.50;97.00
6333;DHT22;3199;49.102;8.856;2024-01-11T15:46:54;0.40;97.10
6333;DHT22;3199;49.102;8.856;2024-01-11T15:49:20;0.40;97.30
6333;DHT22;3199;49.102;8.856;2024-01-11T15:51:46;0.30;97.40
6333;DHT22;3199;49.102;8.856;2024-01-11T15:54:11;0.20;97.40
6333;DHT22;3199;49.102;8.856;2024-01-11T15:56:37;0.10;97.60
6333;DHT22;3199;49.102;8.856;2024-01-11T15:59:02;0.10;97.70